Hyundai Komipo — 3ENI8 — position and weather

sailwx.info

Track history (hours):
 
Tides and Currents Weather Stations Pressure Air Temp Water Temp Dewpoint Dewpoint Depression Visibility Wind Speed Wind Dir Waves Ship Positions

Hyundai Komipo

Last reported at 2018-Jan-12 14:59 UTC. Time now 2018-Feb-17 21:42 UTC.
Position S 32°53' E 151°46'.
Warning: this ship's position is 36 days out of date.

Length 273 m; draft 14.9 m.

Type: Cargo ship. MMSI: 374148000.

Date/timePositionNaut miles runAvg speedWind from/ knotsBaromVisibWave heightAir tempDewpointWater temp
2018-Jan-12 14:59S 32°53' E 151°46'0 0.0
2018-Jan-12 14:29S 32°53' E 151°46'0 0.0
2018-Jan-12 13:59S 32°53' E 151°46'0 0.0
2018-Jan-12 13:29S 32°53' E 151°46'0 0.0
2018-Jan-12 12:59S 32°53' E 151°46'0 0.0
2018-Jan-12 12:29S 32°53' E 151°46'0 0.0
2018-Jan-12 11:59S 32°53' E 151°46'0 0.0
2018-Jan-12 11:29S 32°53' E 151°46'0 0.0
2018-Jan-12 10:59S 32°53' E 151°46'0 0.0
2018-Jan-12 10:29S 32°53' E 151°46'0 0.0
2018-Jan-12 09:59S 32°53' E 151°46'0 0.0
2018-Jan-12 09:29S 32°53' E 151°46'0 0.0
2018-Jan-12 08:59S 32°53' E 151°46'0 0.0
2018-Jan-12 08:29S 32°53' E 151°46'0 0.0
2018-Jan-12 07:59S 32°53' E 151°46'0 0.0
2018-Jan-12 07:29S 32°53' E 151°46'0 0.0
2018-Jan-12 06:59S 32°53' E 151°46'0 0.0
2018-Jan-12 06:29S 32°53' E 151°46'0 0.0
2018-Jan-12 05:59S 32°53' E 151°46'0 0.0
2018-Jan-12 05:29S 32°53' E 151°46'0 0.0
2018-Jan-12 04:59S 32°53' E 151°46'0 0.0
2018-Jan-12 04:29S 32°53' E 151°46'0 0.0
2018-Jan-12 03:56S 32°53' E 151°46'0 0.0
2018-Jan-12 03:29S 32°53' E 151°46'0 0.0
2018-Jan-12 02:59S 32°53' E 151°46'0 0.0
2018-Jan-12 02:29S 32°53' E 151°46'0 0.0
2018-Jan-12 01:59S 32°53' E 151°46'0 0.0
2018-Jan-12 01:29S 32°53' E 151°46'0 0.0
2018-Jan-12 00:59S 32°53' E 151°46'0 0.0
2018-Jan-12 00:29S 32°53' E 151°46'0 0.0
2018-Jan-11 23:59S 32°53' E 151°46'0 0.0
2018-Jan-11 23:29S 32°53' E 151°46'0 0.0
2018-Jan-11 22:59S 32°53' E 151°46'0 0.0
2018-Jan-11 22:29S 32°53' E 151°46'0 0.2
2018-Jan-11 22:00S 32°53' E 151°46'1 2.9
2018-Jan-11 21:30S 32°55' E 151°46'3 6.5
2018-Jan-11 21:00S 32°55' E 151°50'4 8.3
2018-Jan-11 20:30S 32°59' E 151°53'4 7.6
2018-Jan-11 20:00S 33°02' E 151°56'510.8
2018-Jan-11 19:30S 33°06' E 152°00'611.2
2018-Jan-11 19:00S 33°10' E 152°05'510.2
2018-Jan-11 18:30S 33°14' E 152°08'1 1.9
2018-Jan-11 18:00S 33°14' E 152°10'0 0.7
2018-Jan-11 17:30S 33°14' E 152°10'0 0.7
2018-Jan-11 17:00S 33°13' E 152°10'0 0.7
2018-Jan-11 16:18S 33°13' E 152°09'0 1.1
2018-Jan-11 16:00S 33°13' E 152°09'1 1.3
2018-Jan-11 15:30S 33°12' E 152°09'1 1.4
2018-Jan-11 15:00S 33°11' E 152°08'1 1.4
2018-Jan-11 14:30S 33°11' E 152°08'1 1.3
2018-Jan-11 13:57S 33°10' E 152°08'1 1.5
2018-Jan-11 13:03S 33°09' E 152°07'0 1.4
2018-Jan-11 13:00S 33°09' E 152°07'1 1.4
2018-Jan-11 12:30S 33°08' E 152°07'1 1.3
2018-Jan-11 11:54S 33°07' E 152°07'1 1.2
2018-Jan-11 11:18S 33°07' E 152°07'0 1.2
2018-Jan-11 11:00S 33°06' E 152°07'1 1.4
2018-Jan-11 10:30S 33°06' E 152°06'4 9.0
2018-Jan-11 10:00S 33°10' E 152°05'611.3
2018-Jan-11 09:30S 33°15' E 152°02'610.9
2018-Jan-11 09:00S 33°21' E 151°60'11 0.4
2018-Jan-10 09:21S 33°14' E 152°10'410.4
2018-Jan-10 08:59S 33°13' E 152°05'4 7.5
2018-Jan-10 08:30S 33°13' E 152°01'2 1.5
2018-Jan-10 07:09S 33°14' E 152°03'0 1.5
2018-Jan-10 07:00S 33°14' E 152°03'1 1.8
2018-Jan-10 06:27S 33°15' E 152°04'1 2.1
2018-Jan-10 06:00S 33°15' E 152°06'1 2.2
2018-Jan-10 05:30S 33°15' E 152°07'1 2.1
2018-Jan-10 04:57S 33°15' E 152°08'1 2.5
2018-Jan-10 04:24S 33°16' E 152°10'1 2.7
2018-Jan-10 04:00S 33°16' E 152°11'1 2.7
2018-Jan-10 03:30S 33°16' E 152°13'1 2.6
2018-Jan-10 03:00S 33°16' E 152°14'2 3.0
2018-Jan-10 02:15S 33°16' E 152°17'2 5.3
2018-Jan-10 01:56S 33°15' E 152°18'511.4
2018-Jan-10 01:30S 33°10' E 152°21'611.6
2018-Jan-10 01:01S 33°05' E 152°24'611.3
2018-Jan-10 00:30S 32°60' E 152°26'611.5
2018-Jan-10 00:01S 32°55' E 152°28'611.7
2018-Jan-09 23:31S 32°49' E 152°32'611.5
2018-Jan-09 23:01S 32°44' E 152°35'611.9
2018-Jan-09 22:31S 32°39' E 152°37'611.7
2018-Jan-09 22:01S 32°34' E 152°41'611.9
2018-Jan-09 21:30S 32°29' E 152°45'611.9
2018-Jan-09 21:01S 32°23' E 152°48'20312.7
2018-Jan-09 04:59S 29°06' E 153°44'613.7
2018-Jan-09 04:30S 28°59' E 153°45'713.9
2018-Jan-09 04:00S 28°52' E 153°47'713.5
2018-Jan-09 03:30S 28°46' E 153°48'713.3
2018-Jan-09 03:01S 28°39' E 153°50'713.1
2018-Jan-09 02:31S 28°33' E 153°50'612.8
2018-Jan-09 02:01S 28°26' E 153°50'612.8
2018-Jan-09 01:31S 28°20' E 153°51'612.6
2018-Jan-09 01:01S 28°14' E 153°51'612.5
2018-Jan-09 00:31S 28°07' E 153°51'612.2
2018-Jan-09 00:00S 28°01' E 153°51'612.2
2018-Jan-08 23:31S 27°55' E 153°51'612.3
2018-Jan-08 23:01S 27°49' E 153°51'612.6
2018-Jan-08 22:31S 27°43' E 153°52'713.2
2018-Jan-08 22:00S 27°36' E 153°52'914.0
2018-Jan-08 21:22S 27°27' E 153°52'6714.4
2018-Jan-08 16:42S 26°20' E 153°56'514.3
2018-Jan-08 16:22S 26°15' E 153°56'1914.1
2018-Jan-08 15:00S 25°56' E 153°58'1413.6
2018-Jan-08 13:57S 25°41' E 153°58'  
Track history (hours):
 
Tides and Currents Weather Stations Pressure Air Temp Water Temp Dewpoint Dewpoint Depression Visibility Wind Speed Wind Dir Waves Ship Positions

Hyundai Komipo

Last reported at 2018-Jan-12 14:59 UTC. Time now 2018-Feb-17 21:42 UTC.
Position S 32°53' E 151°46'.
Warning: this ship's position is 36 days out of date.

Length 273 m; draft 14.9 m.

Type: Cargo ship. MMSI: 374148000.

Date/timePositionNaut miles runAvg speedWind from/ knotsBaromVisibWave heightAir tempDewpointWater temp
2018-Jan-12 14:59S 32°53' E 151°46'0 0.0
2018-Jan-12 14:29S 32°53' E 151°46'0 0.0
2018-Jan-12 13:59S 32°53' E 151°46'0 0.0
2018-Jan-12 13:29S 32°53' E 151°46'0 0.0
2018-Jan-12 12:59S 32°53' E 151°46'0 0.0
2018-Jan-12 12:29S 32°53' E 151°46'0 0.0
2018-Jan-12 11:59S 32°53' E 151°46'0 0.0
2018-Jan-12 11:29S 32°53' E 151°46'0 0.0
2018-Jan-12 10:59S 32°53' E 151°46'0 0.0
2018-Jan-12 10:29S 32°53' E 151°46'0 0.0
2018-Jan-12 09:59S 32°53' E 151°46'0 0.0
2018-Jan-12 09:29S 32°53' E 151°46'0 0.0
2018-Jan-12 08:59S 32°53' E 151°46'0 0.0
2018-Jan-12 08:29S 32°53' E 151°46'0 0.0
2018-Jan-12 07:59S 32°53' E 151°46'0 0.0
2018-Jan-12 07:29S 32°53' E 151°46'0 0.0
2018-Jan-12 06:59S 32°53' E 151°46'0 0.0
2018-Jan-12 06:29S 32°53' E 151°46'0 0.0
2018-Jan-12 05:59S 32°53' E 151°46'0 0.0
2018-Jan-12 05:29S 32°53' E 151°46'0 0.0
2018-Jan-12 04:59S 32°53' E 151°46'0 0.0
2018-Jan-12 04:29S 32°53' E 151°46'0 0.0
2018-Jan-12 03:56S 32°53' E 151°46'0 0.0
2018-Jan-12 03:29S 32°53' E 151°46'0 0.0
2018-Jan-12 02:59S 32°53' E 151°46'0 0.0
2018-Jan-12 02:29S 32°53' E 151°46'0 0.0
2018-Jan-12 01:59S 32°53' E 151°46'0 0.0
2018-Jan-12 01:29S 32°53' E 151°46'0 0.0
2018-Jan-12 00:59S 32°53' E 151°46'0 0.0
2018-Jan-12 00:29S 32°53' E 151°46'0 0.0
2018-Jan-11 23:59S 32°53' E 151°46'0 0.0
2018-Jan-11 23:29S 32°53' E 151°46'0 0.0
2018-Jan-11 22:59S 32°53' E 151°46'0 0.0
2018-Jan-11 22:29S 32°53' E 151°46'0 0.2
2018-Jan-11 22:00S 32°53' E 151°46'1 2.9
2018-Jan-11 21:30S 32°55' E 151°46'3 6.5
2018-Jan-11 21:00S 32°55' E 151°50'4 8.3
2018-Jan-11 20:30S 32°59' E 151°53'4 7.6
2018-Jan-11 20:00S 33°02' E 151°56'510.8
2018-Jan-11 19:30S 33°06' E 152°00'611.2
2018-Jan-11 19:00S 33°10' E 152°05'510.2
2018-Jan-11 18:30S 33°14' E 152°08'1 1.9
2018-Jan-11 18:00S 33°14' E 152°10'0 0.7
2018-Jan-11 17:30S 33°14' E 152°10'0 0.7
2018-Jan-11 17:00S 33°13' E 152°10'0 0.7
2018-Jan-11 16:18S 33°13' E 152°09'0 1.1
2018-Jan-11 16:00S 33°13' E 152°09'1 1.3
2018-Jan-11 15:30S 33°12' E 152°09'1 1.4
2018-Jan-11 15:00S 33°11' E 152°08'1 1.4
2018-Jan-11 14:30S 33°11' E 152°08'1 1.3
2018-Jan-11 13:57S 33°10' E 152°08'1 1.5
2018-Jan-11 13:03S 33°09' E 152°07'0 1.4
2018-Jan-11 13:00S 33°09' E 152°07'1 1.4
2018-Jan-11 12:30S 33°08' E 152°07'1 1.3
2018-Jan-11 11:54S 33°07' E 152°07'1 1.2
2018-Jan-11 11:18S 33°07' E 152°07'0 1.2
2018-Jan-11 11:00S 33°06' E 152°07'1 1.4
2018-Jan-11 10:30S 33°06' E 152°06'4 9.0
2018-Jan-11 10:00S 33°10' E 152°05'611.3
2018-Jan-11 09:30S 33°15' E 152°02'610.9
2018-Jan-11 09:00S 33°21' E 151°60'11 0.4
2018-Jan-10 09:21S 33°14' E 152°10'410.4
2018-Jan-10 08:59S 33°13' E 152°05'4 7.5
2018-Jan-10 08:30S 33°13' E 152°01'2 1.5
2018-Jan-10 07:09S 33°14' E 152°03'0 1.5
2018-Jan-10 07:00S 33°14' E 152°03'1 1.8
2018-Jan-10 06:27S 33°15' E 152°04'1 2.1
2018-Jan-10 06:00S 33°15' E 152°06'1 2.2
2018-Jan-10 05:30S 33°15' E 152°07'1 2.1
2018-Jan-10 04:57S 33°15' E 152°08'1 2.5
2018-Jan-10 04:24S 33°16' E 152°10'1 2.7
2018-Jan-10 04:00S 33°16' E 152°11'1 2.7
2018-Jan-10 03:30S 33°16' E 152°13'1 2.6
2018-Jan-10 03:00S 33°16' E 152°14'2 3.0
2018-Jan-10 02:15S 33°16' E 152°17'2 5.3
2018-Jan-10 01:56S 33°15' E 152°18'511.4
2018-Jan-10 01:30S 33°10' E 152°21'611.6
2018-Jan-10 01:01S 33°05' E 152°24'611.3
2018-Jan-10 00:30S 32°60' E 152°26'611.5
2018-Jan-10 00:01S 32°55' E 152°28'611.7
2018-Jan-09 23:31S 32°49' E 152°32'611.5
2018-Jan-09 23:01S 32°44' E 152°35'611.9
2018-Jan-09 22:31S 32°39' E 152°37'611.7
2018-Jan-09 22:01S 32°34' E 152°41'611.9
2018-Jan-09 21:30S 32°29' E 152°45'611.9
2018-Jan-09 21:01S 32°23' E 152°48'20312.7
2018-Jan-09 04:59S 29°06' E 153°44'613.7
2018-Jan-09 04:30S 28°59' E 153°45'713.9
2018-Jan-09 04:00S 28°52' E 153°47'713.5
2018-Jan-09 03:30S 28°46' E 153°48'713.3
2018-Jan-09 03:01S 28°39' E 153°50'713.1
2018-Jan-09 02:31S 28°33' E 153°50'612.8
2018-Jan-09 02:01S 28°26' E 153°50'612.8
2018-Jan-09 01:31S 28°20' E 153°51'612.6
2018-Jan-09 01:01S 28°14' E 153°51'612.5
2018-Jan-09 00:31S 28°07' E 153°51'612.2
2018-Jan-09 00:00S 28°01' E 153°51'612.2
2018-Jan-08 23:31S 27°55' E 153°51'612.3
2018-Jan-08 23:01S 27°49' E 153°51'612.6
2018-Jan-08 22:31S 27°43' E 153°52'713.2
2018-Jan-08 22:00S 27°36' E 153°52'914.0
2018-Jan-08 21:22S 27°27' E 153°52'6714.4
2018-Jan-08 16:42S 26°20' E 153°56'514.3
2018-Jan-08 16:22S 26°15' E 153°56'1914.1
2018-Jan-08 15:00S 25°56' E 153°58'1413.6
2018-Jan-08 13:57S 25°41' E 153°58'  

Dump ship's entire track history